sensor_id;sensor_type;location;lat;lon;timestamp;temperature;humidity
12223;DHT22;6174;49.058;8.524;2022-12-07T05:00:18;4.60;99.90
12223;DHT22;6174;49.058;8.524;2022-12-07T05:02:45;4.70;99.90
12223;DHT22;6174;49.058;8.524;2022-12-07T05:05:12;4.70;99.90
12223;DHT22;6174;49.058;8.524;2022-12-07T05:07:39;4.70;99.90
12223;DHT22;6174;49.058;8.524;2022-12-07T05:10:07;4.60;99.90
12223;DHT22;6174;49.058;8.524;2022-12-07T05:12:33;4.70;99.90
12223;DHT22;6174;49.058;8.524;2022-12-07T05:15:00;4.60;99.90
12223;DHT22;6174;49.058;8.524;2022-12-07T05:17:28;4.70;99.90
12223;DHT22;6174;49.058;8.524;2022-12-07T05:19:55;4.60;99.90
12223;DHT22;6174;49.058;8.524;2022-12-07T05:22:21;4.60;99.90
12223;DHT22;6174;49.058;8.524;2022-12-07T05:24:51;4.60;99.90
12223;DHT22;6174;49.058;8.524;2022-12-07T05:27:18;4.60;99.90
12223;DHT22;6174;49.058;8.524;2022-12-07T05:29:44;4.60;99.90
12223;DHT22;6174;49.058;8.524;2022-12-07T05:32:11;4.60;99.90
12223;DHT22;6174;49.058;8.524;2022-12-07T05:34:39;4.60;99.90
12223;DHT22;6174;49.058;8.524;2022-12-07T05:37:06;4.60;99.90
12223;DHT22;6174;49.058;8.524;2022-12-07T05:39:32;4.60;99.90
12223;DHT22;6174;49.058;8.524;2022-12-07T05:41:59;4.60;99.90
12223;DHT22;6174;49.058;8.524;2022-12-07T05:44:38;4.60;99.90
12223;DHT22;6174;49.058;8.524;2022-12-07T05:47:05;4.60;99.90
12223;DHT22;6174;49.058;8.524;2022-12-07T05:49:31;4.60;99.90
12223;DHT22;6174;49.058;8.524;2022-12-07T05:52:00;4.60;99.90
12223;DHT22;6174;49.058;8.524;2022-12-07T05:54:27;4.60;99.90
12223;DHT22;6174;49.058;8.524;2022-12-07T05:56:54;4.60;99.90
12223;DHT22;6174;49.058;8.524;2022-12-07T05:59:21;4.70;99.90
12223;DHT22;6174;49.058;8.524;2022-12-07T06:01:50;4.70;99.90
12223;DHT22;6174;49.058;8.524;2022-12-07T06:04:17;4.70;99.90
12223;DHT22;6174;49.058;8.524;2022-12-07T06:06:44;4.60;99.90
12223;DHT22;6174;49.058;8.524;2022-12-07T06:09:13;4.70;99.90
12223;DHT22;6174;49.058;8.524;2022-12-07T06:11:39;4.70;99.90
12223;DHT22;6174;49.058;8.524;2022-12-07T06:14:24;4.70;99.90
12223;DHT22;6174;49.058;8.524;2022-12-07T06:16:51;4.70;99.90
12223;DHT22;6174;49.058;8.524;2022-12-07T06:19:18;4.70;99.90
12223;DHT22;6174;49.058;8.524;2022-12-07T06:21:44;4.60;99.90
12223;DHT22;6174;49.058;8.524;2022-12-07T06:24:14;4.60;99.90
12223;DHT22;6174;49.058;8.524;2022-12-07T06:26:41;4.60;99.90
12223;DHT22;6174;49.058;8.524;2022-12-07T06:29:09;4.60;99.90
12223;DHT22;6174;49.058;8.524;2022-12-07T06:31:36;4.60;99.90
12223;DHT22;6174;49.058;8.524;2022-12-07T06:34:05;4.60;99.90
12223;DHT22;6174;49.058;8.524;2022-12-07T06:36:33;4.60;99.90
12223;DHT22;6174;49.058;8.524;2022-12-07T06:38:59;4.50;99.90
12223;DHT22;6174;49.058;8.524;2022-12-07T06:41:27;4.50;99.90
12223;DHT22;6174;49.058;8.524;2022-12-07T06:43:54;4.60;99.90
12223;DHT22;6174;49.058;8.524;2022-12-07T06:46:21;4.60;99.90
12223;DHT22;6174;49.058;8.524;2022-12-07T06:48:48;4.60;99.90
12223;DHT22;6174;49.058;8.524;2022-12-07T06:51:15;4.60;99.90
12223;DHT22;6174;49.058;8.524;2022-12-07T06:53:42;4.60;99.90
12223;DHT22;6174;49.058;8.524;2022-12-07T06:56:09;4.60;99.90
12223;DHT22;6174;49.058;8.524;2022-12-07T06:58:39;4.60;99.90
12223;DHT22;6174;49.058;8.524;2022-12-07T07:01:09;4.70;99.90
12223;DHT22;6174;49.058;8.524;2022-12-07T07:03:35;4.70;99.90
12223;DHT22;6174;49.058;8.524;2022-12-07T07:06:02;4.70;99.90
12223;DHT22;6174;49.058;8.524;2022-12-07T07:08:29;4.70;99.90
12223;DHT22;6174;49.058;8.524;2022-12-07T07:10:56;4.70;99.90
12223;DHT22;6174;49.058;8.524;2022-12-07T07:13:23;4.70;99.90
12223;DHT22;6174;49.058;8.524;2022-12-07T07:15:51;4.80;99.90
12223;DHT22;6174;49.058;8.524;2022-12-07T07:18:18;4.70;99.90
12223;DHT22;6174;49.058;8.524;2022-12-07T07:20:45;4.70;99.90
12223;DHT22;6174;49.058;8.524;2022-12-07T07:23:11;4.80;99.90
12223;DHT22;6174;49.058;8.524;2022-12-07T07:25:38;4.80;99.90
12223;DHT22;6174;49.058;8.524;2022-12-07T07:28:05;4.80;99.90
12223;DHT22;6174;49.058;8.524;2022-12-07T07:30:32;4.80;99.90
12223;DHT22;6174;49.058;8.524;2022-12-07T07:33:02;4.80;99.90
12223;DHT22;6174;49.058;8.524;2022-12-07T07:35:30;4.80;99.90
12223;DHT22;6174;49.058;8.524;2022-12-07T07:37:58;4.80;99.90
12223;DHT22;6174;49.058;8.524;2022-12-07T07:40:28;4.70;99.90
12223;DHT22;6174;49.058;8.524;2022-12-07T07:42:55;4.70;99.90
12223;DHT22;6174;49.058;8.524;2022-12-07T07:45:24;4.70;99.90
12223;DHT22;6174;49.058;8.524;2022-12-07T07:47:51;4.70;99.90
12223;DHT22;6174;49.058;8.524;2022-12-07T07:50:20;4.70;99.90
12223;DHT22;6174;49.058;8.524;2022-12-07T07:52:47;4.70;99.90
12223;DHT22;6174;49.058;8.524;2022-12-07T07:55:14;4.80;99.90
12223;DHT22;6174;49.058;8.524;2022-12-07T07:57:41;4.80;99.90
12223;DHT22;6174;49.058;8.524;2022-12-07T08:00:10;4.80;99.90
12223;DHT22;6174;49.058;8.524;2022-12-07T08:02:38;4.70;99.90
12223;DHT22;6174;49.058;8.524;2022-12-07T08:05:06;4.80;99.90
12223;DHT22;6174;49.058;8.524;2022-12-07T08:07:34;4.80;99.90
12223;DHT22;6174;49.058;8.524;2022-12-07T08:10:01;4.80;99.90
12223;DHT22;6174;49.058;8.524;2022-12-07T08:12:28;4.80;99.90
12223;DHT22;6174;49.058;8.524;2022-12-07T08:14:55;4.80;99.90
12223;DHT22;6174;49.058;8.524;2022-12-07T08:17:21;4.80;99.90
12223;DHT22;6174;49.058;8.524;2022-12-07T08:19:48;4.80;99.90
12223;DHT22;6174;49.058;8.524;2022-12-07T08:22:15;4.90;99.90
12223;DHT22;6174;49.058;8.524;2022-12-07T08:24:43;4.80;99.90
12223;DHT22;6174;49.058;8.524;2022-12-07T08:27:10;4.80;99.90
12223;DHT22;6174;49.058;8.524;2022-12-07T08:29:37;4.90;99.90
12223;DHT22;6174;49.058;8.524;2022-12-07T08:32:04;4.90;99.90
12223;DHT22;6174;49.058;8.524;2022-12-07T08:34:30;4.90;99.90
12223;DHT22;6174;49.058;8.524;2022-12-07T08:36:57;4.90;99.90
12223;DHT22;6174;49.058;8.524;2022-12-07T08:39:24;4.90;99.90
12223;DHT22;6174;49.058;8.524;2022-12-07T08:41:52;4.90;99.90
12223;DHT22;6174;49.058;8.524;2022-12-07T08:44:19;4.90;99.90
12223;DHT22;6174;49.058;8.524;2022-12-07T08:46:47;5.00;99.90
12223;DHT22;6174;49.058;8.524;2022-12-07T08:49:18;4.90;99.90
12223;DHT22;6174;49.058;8.524;2022-12-07T08:51:45;4.90;99.90
12223;DHT22;6174;49.058;8.524;2022-12-07T08:54:15;5.00;99.90
12223;DHT22;6174;49.058;8.524;2022-12-07T08:56:43;5.00;99.90
12223;DHT22;6174;49.058;8.524;2022-12-07T08:59:13;5.00;99.90
12223;DHT22;6174;49.058;8.524;2022-12-07T09:01:40;5.00;99.90
12223;DHT22;6174;49.058;8.524;2022-12-07T09:04:07;5.00;99.90
12223;DHT22;6174;49.058;8.524;2022-12-07T09:06:34;4.90;99.90
12223;DHT22;6174;49.058;8.524;2022-12-07T09:09:02;5.00;99.90
12223;DHT22;6174;49.058;8.524;2022-12-07T09:11:29;5.00;99.90
12223;DHT22;6174;49.058;8.524;2022-12-07T09:13:56;5.00;99.90
12223;DHT22;6174;49.058;8.524;2022-12-07T09:16:24;5.00;99.90
12223;DHT22;6174;49.058;8.524;2022-12-07T09:18:51;5.00;99.90
12223;DHT22;6174;49.058;8.524;2022-12-07T09:21:18;5.00;99.90
12223;DHT22;6174;49.058;8.524;2022-12-07T09:23:45;5.10;99.90
12223;DHT22;6174;49.058;8.524;2022-12-07T09:26:11;5.10;99.90
12223;DHT22;6174;49.058;8.524;2022-12-07T09:28:38;5.10;99.90
12223;DHT22;6174;49.058;8.524;2022-12-07T09:31:05;5.10;99.90
12223;DHT22;6174;49.058;8.524;2022-12-07T09:33:34;5.10;99.90
12223;DHT22;6174;49.058;8.524;2022-12-07T09:36:00;5.10;99.90
12223;DHT22;6174;49.058;8.524;2022-12-07T09:38:28;5.10;99.90
12223;DHT22;6174;49.058;8.524;2022-12-07T09:40:56;5.20;99.90
12223;DHT22;6174;49.058;8.524;2022-12-07T09:43:24;5.20;99.90
12223;DHT22;6174;49.058;8.524;2022-12-07T09:45:52;5.20;99.90
12223;DHT22;6174;49.058;8.524;2022-12-07T09:48:21;5.30;99.90
12223;DHT22;6174;49.058;8.524;2022-12-07T09:50:51;5.20;99.90
12223;DHT22;6174;49.058;8.524;2022-12-07T09:53:25;5.30;99.90
12223;DHT22;6174;49.058;8.524;2022-12-07T09:55:53;5.30;99.90
12223;DHT22;6174;49.058;8.524;2022-12-07T09:58:22;5.40;99.90
12223;DHT22;6174;49.058;8.524;2022-12-07T10:00:50;5.40;99.90
12223;DHT22;6174;49.058;8.524;2022-12-07T10:03:19;5.40;99.90
12223;DHT22;6174;49.058;8.524;2022-12-07T10:05:50;5.40;99.90
12223;DHT22;6174;49.058;8.524;2022-12-07T10:08:17;5.30;99.90
12223;DHT22;6174;49.058;8.524;2022-12-07T10:10:45;5.40;99.90
12223;DHT22;6174;49.058;8.524;2022-12-07T10:13:14;5.40;99.90
12223;DHT22;6174;49.058;8.524;2022-12-07T10:15:48;5.40;99.90
12223;DHT22;6174;49.058;8.524;2022-12-07T10:18:21;5.40;99.90
12223;DHT22;6174;49.058;8.524;2022-12-07T10:21:11;5.40;99.90
12223;DHT22;6174;49.058;8.524;2022-12-07T10:23:40;5.40;99.90
12223;DHT22;6174;49.058;8.524;2022-12-07T10:26:26;5.40;99.90
12223;DHT22;6174;49.058;8.524;2022-12-07T10:28:54;5.40;99.90
12223;DHT22;6174;49.058;8.524;2022-12-07T10:31:22;5.40;99.90
12223;DHT22;6174;49.058;8.524;2022-12-07T10:33:52;5.40;99.90
12223;DHT22;6174;49.058;8.524;2022-12-07T10:36:23;5.40;99.90
12223;DHT22;6174;49.058;8.524;2022-12-07T10:38:52;5.40;99.90
12223;DHT22;6174;49.058;8.524;2022-12-07T10:41:19;5.40;99.90
12223;DHT22;6174;49.058;8.524;2022-12-07T10:43:47;5.50;99.90
12223;DHT22;6174;49.058;8.524;2022-12-07T10:46:32;5.40;99.90
12223;DHT22;6174;49.058;8.524;2022-12-07T10:49:17;5.40;99.90
12223;DHT22;6174;49.058;8.524;2022-12-07T10:51:51;5.40;99.90
12223;DHT22;6174;49.058;8.524;2022-12-07T10:54:31;5.50;99.90
12223;DHT22;6174;49.058;8.524;2022-12-07T10:57:16;5.50;99.90
12223;DHT22;6174;49.058;8.524;2022-12-07T10:59:55;5.50;99.90
12223;DHT22;6174;49.058;8.524;2022-12-07T11:02:36;5.50;99.90
12223;DHT22;6174;49.058;8.524;2022-12-07T11:05:14;5.60;99.90
12223;DHT22;6174;49.058;8.524;2022-12-07T11:07:52;5.70;99.90
12223;DHT22;6174;49.058;8.524;2022-12-07T11:10:28;5.70;99.90
12223;DHT22;6174;49.058;8.524;2022-12-07T11:13:11;5.60;99.90
12223;DHT22;6174;49.058;8.524;2022-12-07T11:16:11;5.60;99.90
12223;DHT22;6174;49.058;8.524;2022-12-07T11:18:49;5.70;99.90
12223;DHT22;6174;49.058;8.524;2022-12-07T11:21:24;5.50;99.90
12223;DHT22;6174;49.058;8.524;2022-12-07T11:24:01;5.50;99.90
12223;DHT22;6174;49.058;8.524;2022-12-07T11:26:54;5.50;99.90
12223;DHT22;6174;49.058;8.524;2022-12-07T11:32:39;5.50;99.90
12223;DHT22;6174;49.058;8.524;2022-12-07T11:35:13;5.50;99.90
12223;DHT22;6174;49.058;8.524;2022-12-07T11:37:46;5.60;99.90
12223;DHT22;6174;49.058;8.524;2022-12-07T11:40:19;5.60;99.90
12223;DHT22;6174;49.058;8.524;2022-12-07T11:42:51;5.60;99.90
12223;DHT22;6174;49.058;8.524;2022-12-07T11:45:23;5.60;99.90
12223;DHT22;6174;49.058;8.524;2022-12-07T11:47:55;5.60;99.90
12223;DHT22;6174;49.058;8.524;2022-12-07T11:50:27;5.70;99.90
12223;DHT22;6174;49.058;8.524;2022-12-07T11:52:58;5.70;99.90
12223;DHT22;6174;49.058;8.524;2022-12-07T11:55:32;5.70;99.90
12223;DHT22;6174;49.058;8.524;2022-12-07T11:58:08;5.80;99.90
12223;DHT22;6174;49.058;8.524;2022-12-07T12:00:41;5.80;99.90
12223;DHT22;6174;49.058;8.524;2022-12-07T12:03:12;5.80;99.90
12223;DHT22;6174;49.058;8.524;2022-12-07T12:05:42;5.80;99.90
12223;DHT22;6174;49.058;8.524;2022-12-07T12:08:14;5.90;99.90
12223;DHT22;6174;49.058;8.524;2022-12-07T12:10:52;5.90;99.90
12223;DHT22;6174;49.058;8.524;2022-12-07T12:13:40;5.90;99.90
12223;DHT22;6174;49.058;8.524;2022-12-07T12:16:28;5.90;99.90
12223;DHT22;6174;49.058;8.524;2022-12-07T12:19:25;5.90;99.90
12223;DHT22;6174;49.058;8.524;2022-12-07T12:21:56;5.90;99.90
12223;DHT22;6174;49.058;8.524;2022-12-07T12:24:27;5.90;99.90
12223;DHT22;6174;49.058;8.524;2022-12-07T12:27:01;5.90;99.90
12223;DHT22;6174;49.058;8.524;2022-12-07T12:29:33;5.90;99.90
12223;DHT22;6174;49.058;8.524;2022-12-07T12:32:13;5.90;99.90
12223;DHT22;6174;49.058;8.524;2022-12-07T12:34:57;5.90;99.90
12223;DHT22;6174;49.058;8.524;2022-12-07T12:37:45;5.90;99.90
12223;DHT22;6174;49.058;8.524;2022-12-07T12:40:40;5.90;99.90
12223;DHT22;6174;49.058;8.524;2022-12-07T12:43:45;5.90;99.90
12223;DHT22;6174;49.058;8.524;2022-12-07T12:52:54;6.00;99.90
12223;DHT22;6174;49.058;8.524;2022-12-07T13:01:40;5.90;99.90
12223;DHT22;6174;49.058;8.524;2022-12-07T13:04:22;5.80;99.90
12223;DHT22;6174;49.058;8.524;2022-12-07T13:06:50;5.80;99.90
12223;DHT22;6174;49.058;8.524;2022-12-07T13:09:23;5.80;99.90
12223;DHT22;6174;49.058;8.524;2022-12-07T13:12:00;5.80;99.90
12223;DHT22;6174;49.058;8.524;2022-12-07T13:14:55;5.80;99.90
12223;DHT22;6174;49.058;8.524;2022-12-07T13:17:57;5.80;99.90
12223;DHT22;6174;49.058;8.524;2022-12-07T13:20:44;5.90;99.90
12223;DHT22;6174;49.058;8.524;2022-12-07T13:23:13;5.90;99.90
12223;DHT22;6174;49.058;8.524;2022-12-07T13:25:46;5.90;99.90
12223;DHT22;6174;49.058;8.524;2022-12-07T13:28:17;5.80;99.90
12223;DHT22;6174;49.058;8.524;2022-12-07T13:31:04;5.70;99.90
12223;DHT22;6174;49.058;8.524;2022-12-07T13:33:37;5.80;99.90
12223;DHT22;6174;49.058;8.524;2022-12-07T13:36:08;5.80;99.90
12223;DHT22;6174;49.058;8.524;2022-12-07T13:38:49;5.90;99.90
12223;DHT22;6174;49.058;8.524;2022-12-07T13:41:17;5.80;99.90
12223;DHT22;6174;49.058;8.524;2022-12-07T13:43:48;5.90;99.90
12223;DHT22;6174;49.058;8.524;2022-12-07T13:46:17;5.80;99.90
12223;DHT22;6174;49.058;8.524;2022-12-07T13:48:49;5.90;99.90
12223;DHT22;6174;49.058;8.524;2022-12-07T13:51:20;5.80;99.90
12223;DHT22;6174;49.058;8.524;2022-12-07T13:53:48;5.80;99.90
12223;DHT22;6174;49.058;8.524;2022-12-07T13:56:16;5.80;99.90
12223;DHT22;6174;49.058;8.524;2022-12-07T13:58:43;5.70;99.90
12223;DHT22;6174;49.058;8.524;2022-12-07T14:01:10;5.70;99.90
12223;DHT22;6174;49.058;8.524;2022-12-07T14:03:39;5.80;99.90
12223;DHT22;6174;49.058;8.524;2022-12-07T14:06:23;5.80;99.90
12223;DHT22;6174;49.058;8.524;2022-12-07T14:09:07;5.70;99.90
12223;DHT22;6174;49.058;8.524;2022-12-07T14:11:34;5.70;99.90
12223;DHT22;6174;49.058;8.524;2022-12-07T14:14:02;5.80;99.90
12223;DHT22;6174;49.058;8.524;2022-12-07T14:16:30;5.80;99.90
12223;DHT22;6174;49.058;8.524;2022-12-07T14:18:59;5.80;99.90
12223;DHT22;6174;49.058;8.524;2022-12-07T14:21:29;5.80;99.90
12223;DHT22;6174;49.058;8.524;2022-12-07T14:24:12;5.70;99.90
12223;DHT22;6174;49.058;8.524;2022-12-07T14:26:41;5.70;99.90
12223;DHT22;6174;49.058;8.524;2022-12-07T14:29:35;5.70;99.90
12223;DHT22;6174;49.058;8.524;2022-12-07T14:32:19;5.70;99.90
12223;DHT22;6174;49.058;8.524;2022-12-07T14:34:59;5.70;99.90
12223;DHT22;6174;49.058;8.524;2022-12-07T14:37:29;5.60;99.90
12223;DHT22;6174;49.058;8.524;2022-12-07T14:39:56;5.70;99.90
12223;DHT22;6174;49.058;8.524;2022-12-07T14:42:26;5.70;99.90
12223;DHT22;6174;49.058;8.524;2022-12-07T14:44:54;5.60;99.90
12223;DHT22;6174;49.058;8.524;2022-12-07T14:47:21;5.70;99.90
12223;DHT22;6174;49.058;8.524;2022-12-07T14:49:48;5.70;99.90
12223;DHT22;6174;49.058;8.524;2022-12-07T14:52:17;5.70;99.90
12223;DHT22;6174;49.058;8.524;2022-12-07T14:54:46;5.60;99.90
12223;DHT22;6174;49.058;8.524;2022-12-07T14:57:13;5.70;99.90
12223;DHT22;6174;49.058;8.524;2022-12-07T14:59:40;5.70;99.90
12223;DHT22;6174;49.058;8.524;2022-12-07T15:02:09;5.70;99.90
12223;DHT22;6174;49.058;8.524;2022-12-07T15:04:37;5.70;99.90
12223;DHT22;6174;49.058;8.524;2022-12-07T15:07:06;5.70;99.90
12223;DHT22;6174;49.058;8.524;2022-12-07T15:09:33;5.70;99.90
12223;DHT22;6174;49.058;8.524;2022-12-07T15:12:01;5.60;99.90
12223;DHT22;6174;49.058;8.524;2022-12-07T15:14:28;5.60;99.90
12223;DHT22;6174;49.058;8.524;2022-12-07T15:16:54;5.60;99.90
12223;DHT22;6174;49.058;8.524;2022-12-07T15:19:23;5.60;99.90
12223;DHT22;6174;49.058;8.524;2022-12-07T15:21:51;5.60;99.90
12223;DHT22;6174;49.058;8.524;2022-12-07T15:24:19;5.60;99.90
12223;DHT22;6174;49.058;8.524;2022-12-07T15:26:46;5.60;99.90
12223;DHT22;6174;49.058;8.524;2022-12-07T15:29:15;5.70;99.90
12223;DHT22;6174;49.058;8.524;2022-12-07T15:31:42;5.70;99.90
12223;DHT22;6174;49.058;8.524;2022-12-07T15:34:09;5.70;99.90
12223;DHT22;6174;49.058;8.524;2022-12-07T15:36:36;5.60;99.90
12223;DHT22;6174;49.058;8.524;2022-12-07T15:39:03;5.50;99.90
12223;DHT22;6174;49.058;8.524;2022-12-07T15:41:30;5.50;99.90
12223;DHT22;6174;49.058;8.524;2022-12-07T15:43:57;5.50;99.90
12223;DHT22;6174;49.058;8.524;2022-12-07T15:46:42;5.50;99.90
12223;DHT22;6174;49.058;8.524;2022-12-07T15:49:12;5.50;99.90
12223;DHT22;6174;49.058;8.524;2022-12-07T15:51:40;5.50;99.90
12223;DHT22;6174;49.058;8.524;2022-12-07T15:54:07;5.50;99.90
12223;DHT22;6174;49.058;8.524;2022-12-07T15:56:35;5.50;99.90
12223;DHT22;6174;49.058;8.524;2022-12-07T15:59:01;5.40;99.90
12223;DHT22;6174;49.058;8.524;2022-12-07T16:01:28;5.30;99.90
12223;DHT22;6174;49.058;8.524;2022-12-07T16:03:57;5.30;99.90
12223;DHT22;6174;49.058;8.524;2022-12-07T16:06:24;5.30;99.90
12223;DHT22;6174;49.058;8.524;2022-12-07T16:08:51;5.20;99.90
12223;DHT22;6174;49.058;8.524;2022-12-07T16:11:17;5.20;99.90
12223;DHT22;6174;49.058;8.524;2022-12-07T16:13:44;5.10;99.90
12223;DHT22;6174;49.058;8.524;2022-12-07T16:16:13;5.10;99.90
12223;DHT22;6174;49.058;8.524;2022-12-07T16:18:42;5.10;99.90
12223;DHT22;6174;49.058;8.524;2022-12-07T16:21:10;5.10;99.90
12223;DHT22;6174;49.058;8.524;2022-12-07T16:23:37;5.00;99.90
12223;DHT22;6174;49.058;8.524;2022-12-07T16:26:05;5.00;99.90
12223;DHT22;6174;49.058;8.524;2022-12-07T16:28:32;5.10;99.90
12223;DHT22;6174;49.058;8.524;2022-12-07T16:31:07;5.10;99.90
12223;DHT22;6174;49.058;8.524;2022-12-07T16:33:35;5.10;99.90
12223;DHT22;6174;49.058;8.524;2022-12-07T16:36:03;5.00;99.90
12223;DHT22;6174;49.058;8.524;2022-12-07T16:38:32;5.00;99.90
12223;DHT22;6174;49.058;8.524;2022-12-07T16:40:59;5.10;99.90
12223;DHT22;6174;49.058;8.524;2022-12-07T16:43:26;5.10;99.90
12223;DHT22;6174;49.058;8.524;2022-12-07T16:45:52;5.10;99.90
12223;DHT22;6174;49.058;8.524;2022-12-07T16:48:19;5.20;99.90
12223;DHT22;6174;49.058;8.524;2022-12-07T16:50:46;5.20;99.90
12223;DHT22;6174;49.058;8.524;2022-12-07T16:53:14;5.20;99.90
12223;DHT22;6174;49.058;8.524;2022-12-07T16:55:44;5.10;99.90
12223;DHT22;6174;49.058;8.524;2022-12-07T16:58:11;5.10;99.90
12223;DHT22;6174;49.058;8.524;2022-12-07T17:00:38;5.10;99.90
12223;DHT22;6174;49.058;8.524;2022-12-07T17:03:05;5.20;99.90
12223;DHT22;6174;49.058;8.524;2022-12-07T17:05:32;5.20;99.90
12223;DHT22;6174;49.058;8.524;2022-12-07T17:07:59;5.20;99.90
12223;DHT22;6174;49.058;8.524;2022-12-07T17:10:27;5.20;99.90
12223;DHT22;6174;49.058;8.524;2022-12-07T17:12:55;5.20;99.90
12223;DHT22;6174;49.058;8.524;2022-12-07T17:15:22;5.10;99.90
12223;DHT22;6174;49.058;8.524;2022-12-07T17:17:52;5.10;99.90
12223;DHT22;6174;49.058;8.524;2022-12-07T17:20:19;5.10;99.90
12223;DHT22;6174;49.058;8.524;2022-12-07T17:22:47;5.10;99.90
12223;DHT22;6174;49.058;8.524;2022-12-07T17:25:15;5.10;99.90
12223;DHT22;6174;49.058;8.524;2022-12-07T17:27:42;5.20;99.90
12223;DHT22;6174;49.058;8.524;2022-12-07T17:30:12;5.20;99.90
12223;DHT22;6174;49.058;8.524;2022-12-07T17:32:39;5.10;99.90
12223;DHT22;6174;49.058;8.524;2022-12-07T17:35:06;5.20;99.90
12223;DHT22;6174;49.058;8.524;2022-12-07T17:37:33;5.20;99.90
12223;DHT22;6174;49.058;8.524;2022-12-07T17:40:00;5.20;99.90
12223;DHT22;6174;49.058;8.524;2022-12-07T17:42:27;5.20;99.90
12223;DHT22;6174;49.058;8.524;2022-12-07T17:45:05;5.10;99.90
12223;DHT22;6174;49.058;8.524;2022-12-07T17:47:34;5.10;99.90
12223;DHT22;6174;49.058;8.524;2022-12-07T17:50:01;5.10;99.90
12223;DHT22;6174;49.058;8.524;2022-12-07T17:52:28;5.10;99.90
12223;DHT22;6174;49.058;8.524;2022-12-07T17:55:09;5.10;99.90
12223;DHT22;6174;49.058;8.524;2022-12-07T17:57:35;5.10;99.90
12223;DHT22;6174;49.058;8.524;2022-12-07T18:00:03;5.10;99.90
12223;DHT22;6174;49.058;8.524;2022-12-07T18:02:31;5.10;99.90
12223;DHT22;6174;49.058;8.524;2022-12-07T18:04:59;5.10;99.90
12223;DHT22;6174;49.058;8.524;2022-12-07T18:07:25;5.10;99.90
12223;DHT22;6174;49.058;8.524;2022-12-07T18:09:52;5.10;99.90
12223;DHT22;6174;49.058;8.524;2022-12-07T18:12:19;5.10;99.90
12223;DHT22;6174;49.058;8.524;2022-12-07T18:14:46;5.10;99.90
12223;DHT22;6174;49.058;8.524;2022-12-07T18:17:13;5.00;99.90
12223;DHT22;6174;49.058;8.524;2022-12-07T18:19:40;5.00;99.90
12223;DHT22;6174;49.058;8.524;2022-12-07T18:22:08;5.00;99.90
12223;DHT22;6174;49.058;8.524;2022-12-07T18:24:35;5.00;99.90
12223;DHT22;6174;49.058;8.524;2022-12-07T18:27:02;5.00;99.90
12223;DHT22;6174;49.058;8.524;2022-12-07T18:29:29;5.00;99.90
12223;DHT22;6174;49.058;8.524;2022-12-07T18:31:56;4.90;99.90
12223;DHT22;6174;49.058;8.524;2022-12-07T18:34:23;4.90;99.90
12223;DHT22;6174;49.058;8.524;2022-12-07T18:36:52;4.90;99.90
12223;DHT22;6174;49.058;8.524;2022-12-07T18:39:21;4.90;99.90
12223;DHT22;6174;49.058;8.524;2022-12-07T18:41:47;4.90;99.90
12223;DHT22;6174;49.058;8.524;2022-12-07T18:44:14;4.90;99.90
12223;DHT22;6174;49.058;8.524;2022-12-07T18:46:42;4.90;99.90
12223;DHT22;6174;49.058;8.524;2022-12-07T18:49:11;4.90;99.90
12223;DHT22;6174;49.058;8.524;2022-12-07T18:51:38;4.80;99.90
12223;DHT22;6174;49.058;8.524;2022-12-07T18:54:05;4.90;99.90
12223;DHT22;6174;49.058;8.524;2022-12-07T18:56:33;4.80;99.90
12223;DHT22;6174;49.058;8.524;2022-12-07T18:59:02;4.90;99.90
12223;DHT22;6174;49.058;8.524;2022-12-07T19:01:48;4.80;99.90
12223;DHT22;6174;49.058;8.524;2022-12-07T19:04:16;4.80;99.90
12223;DHT22;6174;49.058;8.524;2022-12-07T19:06:44;4.80;99.90
12223;DHT22;6174;49.058;8.524;2022-12-07T19:09:11;4.70;99.90
12223;DHT22;6174;49.058;8.524;2022-12-07T19:11:40;4.60;99.90
12223;DHT22;6174;49.058;8.524;2022-12-07T19:14:19;4.70;99.90
12223;DHT22;6174;49.058;8.524;2022-12-07T19:16:47;4.60;99.90
12223;DHT22;6174;49.058;8.524;2022-12-07T19:19:15;4.60;99.90
12223;DHT22;6174;49.058;8.524;2022-12-07T19:21:43;4.50;99.90
12223;DHT22;6174;49.058;8.524;2022-12-07T19:24:10;4.40;99.90
12223;DHT22;6174;49.058;8.524;2022-12-07T19:26:37;4.40;99.90
12223;DHT22;6174;49.058;8.524;2022-12-07T19:29:05;4.40;99.90
12223;DHT22;6174;49.058;8.524;2022-12-07T19:31:33;4.30;99.90
12223;DHT22;6174;49.058;8.524;2022-12-07T19:34:00;4.30;99.90
12223;DHT22;6174;49.058;8.524;2022-12-07T19:36:27;4.30;99.90
12223;DHT22;6174;49.058;8.524;2022-12-07T19:38:54;4.30;99.90
12223;DHT22;6174;49.058;8.524;2022-12-07T19:41:21;4.30;99.90
12223;DHT22;6174;49.058;8.524;2022-12-07T19:44:01;4.30;99.90
12223;DHT22;6174;49.058;8.524;2022-12-07T19:46:30;4.20;99.90
12223;DHT22;6174;49.058;8.524;2022-12-07T19:48:58;4.10;99.90
12223;DHT22;6174;49.058;8.524;2022-12-07T19:51:26;4.10;99.90
12223;DHT22;6174;49.058;8.524;2022-12-07T19:53:55;4.00;99.90
12223;DHT22;6174;49.058;8.524;2022-12-07T19:56:23;4.00;99.90
12223;DHT22;6174;49.058;8.524;2022-12-07T19:58:50;3.90;99.90
12223;DHT22;6174;49.058;8.524;2022-12-07T20:01:17;3.80;99.90
12223;DHT22;6174;49.058;8.524;2022-12-07T20:03:45;3.80;99.90
12223;DHT22;6174;49.058;8.524;2022-12-07T20:06:15;3.80;99.90
12223;DHT22;6174;49.058;8.524;2022-12-07T20:08:44;3.70;99.90
12223;DHT22;6174;49.058;8.524;2022-12-07T20:11:11;3.70;99.90
12223;DHT22;6174;49.058;8.524;2022-12-07T20:13:56;3.70;99.90
12223;DHT22;6174;49.058;8.524;2022-12-07T20:16:23;3.60;99.90
12223;DHT22;6174;49.058;8.524;2022-12-07T20:18:51;3.60;99.90
12223;DHT22;6174;49.058;8.524;2022-12-07T20:21:18;3.60;99.90
12223;DHT22;6174;49.058;8.524;2022-12-07T20:23:45;3.50;99.90
12223;DHT22;6174;49.058;8.524;2022-12-07T20:26:13;3.50;99.90
12223;DHT22;6174;49.058;8.524;2022-12-07T20:28:40;3.50;99.90
12223;DHT22;6174;49.058;8.524;2022-12-07T20:31:11;3.40;99.90
12223;DHT22;6174;49.058;8.524;2022-12-07T20:33:38;3.40;99.90
12223;DHT22;6174;49.058;8.524;2022-12-07T20:36:07;3.40;99.90
12223;DHT22;6174;49.058;8.524;2022-12-07T20:38:34;3.40;99.90
12223;DHT22;6174;49.058;8.524;2022-12-07T20:41:03;3.40;99.90
12223;DHT22;6174;49.058;8.524;2022-12-07T20:43:31;3.40;99.90
12223;DHT22;6174;49.058;8.524;2022-12-07T20:45:58;3.40;99.90
12223;DHT22;6174;49.058;8.524;2022-12-07T20:48:25;3.40;99.90
12223;DHT22;6174;49.058;8.524;2022-12-07T20:50:52;3.40;99.90
12223;DHT22;6174;49.058;8.524;2022-12-07T20:53:20;3.40;99.90
12223;DHT22;6174;49.058;8.524;2022-12-07T20:55:47;3.40;99.90
12223;DHT22;6174;49.058;8.524;2022-12-07T20:58:14;3.40;99.90
12223;DHT22;6174;49.058;8.524;2022-12-07T21:00:41;3.40;99.90
12223;DHT22;6174;49.058;8.524;2022-12-07T21:03:08;3.30;99.90
12223;DHT22;6174;49.058;8.524;2022-12-07T21:05:35;3.20;99.90
12223;DHT22;6174;49.058;8.524;2022-12-07T21:08:02;3.20;99.90
12223;DHT22;6174;49.058;8.524;2022-12-07T21:10:30;3.10;99.90
12223;DHT22;6174;49.058;8.524;2022-12-07T21:12:57;3.10;99.90
12223;DHT22;6174;49.058;8.524;2022-12-07T21:15:24;3.10;99.90
12223;DHT22;6174;49.058;8.524;2022-12-07T21:17:50;3.00;99.90
12223;DHT22;6174;49.058;8.524;2022-12-07T21:20:17;3.00;99.90
12223;DHT22;6174;49.058;8.524;2022-12-07T21:22:44;3.00;99.90
12223;DHT22;6174;49.058;8.524;2022-12-07T21:25:12;2.90;99.90
12223;DHT22;6174;49.058;8.524;2022-12-07T21:27:40;2.90;99.90
12223;DHT22;6174;49.058;8.524;2022-12-07T21:30:07;2.90;99.90
12223;DHT22;6174;49.058;8.524;2022-12-07T21:32:34;2.80;99.90
12223;DHT22;6174;49.058;8.524;2022-12-07T21:35:01;2.80;99.90